createdAt,value
2023-02-15T00:22:26.839Z,1.10
2023-02-15T01:24:15.201Z,0.80
2023-02-15T01:44:03.876Z,0.30
2023-02-15T01:46:52.094Z,0.30
2023-02-15T01:51:53.386Z,0.70
2023-02-15T01:54:32.844Z,0.60
2023-02-15T01:57:06.619Z,-0.80
2023-02-15T01:59:37.026Z,0.60
2023-02-15T02:02:08.256Z,0.30
2023-02-15T02:04:56.322Z,0.70
2023-02-15T02:07:28.737Z,-0.50
2023-02-15T02:14:55.110Z,0.20
2023-02-15T02:17:40.838Z,0.10
2023-02-15T02:20:56.468Z,-0.60
2023-02-15T02:26:26.678Z,-1.40
2023-02-15T02:29:17.166Z,0.40
2023-02-15T02:32:16.690Z,0.30
2023-02-15T02:35:15.335Z,0.70
2023-02-15T02:38:10.224Z,-0.30
2023-02-15T02:40:46.538Z,0.10
2023-02-15T02:43:30.919Z,0.30
2023-02-15T02:46:10.115Z,-0.30
2023-02-15T02:48:39.858Z,0.40
2023-02-15T02:56:28.911Z,-0.70
2023-02-15T03:02:23.224Z,-0.40
2023-02-15T03:05:04.151Z,0.90
2023-02-15T03:07:34.230Z,0.50
2023-02-15T03:10:05.299Z,0.20
2023-02-15T03:15:50.423Z,-0.40
2023-02-15T03:18:21.516Z,-0.10
2023-02-15T03:20:51.038Z,-0.20
2023-02-15T03:23:24.278Z,-0.20
2023-02-15T03:26:00.470Z,0.30
2023-02-15T03:28:36.804Z,-0.50
2023-02-15T03:31:07.861Z,0.10
2023-02-15T03:33:39.472Z,-0.60
2023-02-15T03:36:20.040Z,0.30
2023-02-15T03:39:00.722Z,-1.20
2023-02-15T03:41:35.292Z,-0.50
2023-02-15T03:44:13.888Z,-0.30
2023-02-15T03:47:07.320Z,-0.60
2023-02-15T03:50:05.314Z,0.40
2023-02-15T03:52:33.864Z,-0.80
2023-02-15T03:57:48.814Z,0.50
2023-02-15T04:03:16.344Z,0.10
2023-02-15T04:05:45.573Z,0.10
2023-02-15T04:10:53.847Z,-0.60
2023-02-15T04:13:31.195Z,-0.40
2023-02-15T04:19:03.181Z,-0.70
2023-02-15T04:21:50.244Z,0.60
2023-02-15T04:27:06.621Z,-0.70
2023-02-15T04:32:03.468Z,-0.40
2023-02-15T05:26:43.326Z,-0.70
2023-02-15T05:29:12.061Z,0.10
2023-02-15T06:01:22.730Z,-1.80
2023-02-15T07:08:01.461Z,-0.50
2023-02-15T07:20:23.982Z,-0.50
2023-02-15T07:22:52.360Z,-0.90
2023-02-15T07:30:18.254Z,-1.30
2023-02-15T07:33:05.993Z,-1.10
2023-02-15T07:42:59.900Z,-0.40
2023-02-15T07:57:51.239Z,-0.30
2023-02-15T08:00:25.741Z,0.20
2023-02-15T08:03:14.738Z,-0.30
2023-02-15T08:05:44.528Z,0.20
2023-02-15T08:11:25.594Z,-0.40
2023-02-15T08:16:39.211Z,-1.20
2023-02-15T08:19:09.840Z,0.60
2023-02-15T08:21:41.274Z,0.30
2023-02-15T08:24:09.923Z,0.60
2023-02-15T08:39:05.947Z,0.60
2023-02-15T08:41:36.903Z,0.30
2023-02-15T08:44:09.636Z,-0.90
2023-02-15T08:46:42.590Z,1.40
2023-02-15T08:49:13.524Z,0.70
2023-02-15T08:54:13.767Z,0.20
2023-02-15T08:56:43.518Z,0.40
2023-02-15T08:59:29.282Z,1.40
2023-02-15T09:11:56.755Z,0.60
2023-02-15T09:26:49.453Z,0.60
2023-02-15T09:29:18.843Z,1.70
2023-02-15T09:31:51.723Z,1.60
2023-02-15T09:34:22.431Z,0.70
2023-02-15T09:36:51.958Z,1.80
2023-02-15T09:39:28.212Z,2.60
2023-02-15T09:50:58.979Z,3.50
2023-02-15T09:53:51.461Z,2.00
2023-02-15T09:56:41.196Z,3.60
2023-02-15T09:59:52.196Z,3.50
2023-02-15T10:02:59.064Z,3.30
2023-02-15T10:06:07.705Z,2.80
2023-02-15T10:14:52.458Z,2.90
2023-02-15T10:20:31.328Z,3.30
2023-02-15T10:23:18.145Z,4.10
2023-02-15T10:26:22.098Z,4.40
2023-02-15T10:29:18.238Z,3.90
2023-02-15T10:32:27.763Z,5.00
2023-02-15T10:38:40.817Z,3.80
2023-02-15T10:41:27.528Z,4.40
2023-02-15T10:44:10.073Z,5.40
2023-02-15T10:47:25.134Z,4.60
2023-02-15T10:50:11.588Z,6.20
2023-02-15T10:55:55.620Z,5.20
2023-02-15T11:01:35.583Z,6.90
2023-02-15T11:04:29.174Z,7.30
2023-02-15T11:07:02.674Z,8.40
2023-02-15T11:10:02.739Z,7.50
2023-02-15T11:12:31.843Z,7.70
2023-02-15T11:15:28.128Z,6.80
2023-02-15T11:18:12.734Z,6.90
2023-02-15T11:21:04.238Z,7.90
2023-02-15T11:23:37.106Z,9.00
2023-02-15T11:26:13.234Z,8.40
2023-02-15T11:28:56.404Z,9.50
2023-02-15T11:31:27.523Z,9.60
2023-02-15T11:34:03.090Z,9.70
2023-02-15T11:36:38.999Z,11.20
2023-02-15T11:39:14.887Z,12.40
2023-02-15T11:41:52.878Z,12.20
2023-02-15T11:49:33.353Z,12.20
2023-02-15T11:52:06.799Z,13.00
2023-02-15T11:54:38.112Z,15.50
2023-02-15T11:57:30.493Z,15.70
2023-02-15T12:00:14.270Z,15.70
2023-02-15T12:02:47.879Z,15.70
2023-02-15T12:05:23.092Z,16.50
2023-02-15T12:07:57.101Z,16.30
2023-02-15T12:10:42.506Z,17.90
2023-02-15T12:13:20.152Z,17.70
2023-02-15T12:15:58.255Z,18.00
2023-02-15T12:21:14.474Z,18.50
2023-02-15T12:23:52.955Z,18.40
2023-02-15T12:26:36.414Z,18.00
2023-02-15T12:29:26.724Z,18.90
2023-02-15T12:34:33.505Z,18.50
2023-02-15T12:37:17.179Z,18.50
2023-02-15T12:40:03.832Z,18.60
2023-02-15T12:42:45.358Z,19.20
2023-02-15T12:45:29.754Z,19.90
2023-02-15T12:48:20.604Z,19.70
2023-02-15T12:50:55.191Z,20.40
2023-02-15T12:56:01.694Z,20.90
2023-02-15T12:58:32.084Z,20.70
2023-02-15T13:01:20.256Z,18.60
2023-02-15T13:04:02.521Z,18.90
2023-02-15T13:06:36.954Z,20.90
2023-02-15T13:09:21.036Z,20.50
2023-02-15T13:11:48.884Z,21.00
2023-02-15T13:14:32.271Z,20.60
2023-02-15T13:17:07.143Z,20.90
2023-02-15T13:19:44.345Z,20.20
2023-02-15T13:22:21.229Z,21.20
2023-02-15T13:24:54.398Z,22.50
2023-02-15T13:27:30.773Z,21.00
2023-02-15T13:30:04.019Z,21.30
2023-02-15T13:32:38.000Z,21.60
2023-02-15T13:38:13.006Z,21.50
2023-02-15T13:40:55.312Z,21.50
2023-02-15T13:46:53.680Z,22.50
2023-02-15T13:49:48.147Z,22.60
2023-02-15T13:52:22.179Z,21.50
2023-02-15T13:55:25.602Z,21.90
2023-02-15T13:58:24.892Z,23.80
2023-02-15T14:01:12.459Z,23.30
2023-02-15T14:04:28.499Z,23.10
2023-02-15T14:07:26.198Z,22.20
2023-02-15T14:10:20.519Z,22.80
2023-02-15T14:13:28.327Z,23.80
2023-02-15T14:16:30.106Z,23.20
2023-02-15T14:19:22.499Z,23.90
2023-02-15T14:24:21.859Z,22.60
2023-02-15T14:26:59.891Z,23.60
2023-02-15T14:29:55.027Z,23.90
2023-02-15T14:32:37.147Z,24.40
2023-02-15T14:35:14.645Z,23.50
2023-02-15T14:38:38.528Z,23.30
2023-02-15T14:44:14.149Z,23.70
2023-02-15T14:47:02.226Z,22.60
2023-02-15T14:49:38.118Z,22.50
2023-02-15T14:52:11.905Z,21.70
2023-02-15T15:02:24.261Z,19.50
2023-02-15T15:05:08.372Z,20.70
2023-02-15T15:08:09.028Z,18.40
2023-02-15T15:10:46.497Z,20.70
2023-02-15T15:16:35.032Z,18.60
2023-02-15T15:19:07.410Z,18.50
2023-02-15T15:21:50.378Z,18.50
2023-02-15T15:24:39.630Z,17.90
2023-02-15T15:27:51.922Z,16.00
2023-02-15T15:35:54.886Z,16.40
2023-02-15T15:39:06.056Z,16.40
2023-02-15T15:41:49.699Z,15.80
2023-02-15T15:47:39.446Z,15.60
2023-02-15T15:50:18.608Z,14.30
2023-02-15T15:52:52.856Z,15.10
2023-02-15T15:55:27.548Z,15.40
2023-02-15T15:58:00.550Z,15.70
2023-02-15T16:00:52.498Z,15.40
2023-02-15T16:03:27.320Z,13.50
2023-02-15T16:08:30.953Z,13.80
2023-02-15T16:11:01.399Z,12.30
2023-02-15T16:13:29.165Z,12.30
2023-02-15T16:15:57.484Z,14.30
2023-02-15T16:18:28.109Z,15.30
2023-02-15T16:21:01.580Z,12.60
2023-02-15T16:23:39.722Z,11.90
2023-02-15T16:29:28.725Z,12.10
2023-02-15T16:32:27.869Z,12.30
2023-02-15T16:35:01.907Z,10.90
2023-02-15T16:45:13.667Z,11.90
2023-02-15T16:47:46.618Z,11.70
2023-02-15T16:50:36.079Z,10.80
2023-02-15T16:53:07.628Z,10.90
2023-02-15T16:55:43.478Z,10.40
2023-02-15T16:58:17.728Z,10.40
2023-02-15T17:08:32.268Z,10.40
2023-02-15T17:13:29.987Z,9.50
2023-02-15T17:18:39.619Z,10.00
2023-02-15T17:21:14.832Z,9.20
2023-02-15T17:26:28.545Z,9.20
2023-02-15T17:29:17.185Z,8.70
2023-02-15T17:31:50.263Z,8.60
2023-02-15T17:35:09.746Z,8.40
2023-02-15T17:40:28.890Z,7.40
2023-02-15T17:45:33.437Z,7.60
2023-02-15T17:48:05.010Z,7.40
2023-02-15T17:53:02.050Z,8.50
2023-02-15T17:58:08.184Z,7.40
2023-02-15T18:00:59.202Z,7.10
2023-02-15T18:04:04.566Z,6.30
2023-02-15T18:09:39.889Z,8.60
2023-02-15T18:14:54.075Z,7.40
2023-02-15T18:20:19.002Z,6.40
2023-02-15T18:30:22.587Z,7.00
2023-02-15T18:32:52.996Z,6.60
2023-02-15T18:35:24.624Z,6.40
2023-02-15T18:37:53.833Z,7.10
2023-02-15T18:40:25.860Z,5.60
2023-02-15T18:42:56.829Z,6.40
2023-02-15T18:45:32.916Z,5.70
2023-02-15T18:50:33.857Z,6.70
2023-02-15T18:53:04.310Z,6.10
2023-02-15T18:58:01.565Z,5.60
2023-02-15T19:00:33.096Z,6.80
2023-02-15T19:03:02.220Z,6.10
2023-02-15T19:08:01.087Z,6.20
2023-02-15T19:10:31.863Z,5.70
2023-02-15T19:15:32.785Z,6.30
2023-02-15T19:23:21.272Z,6.00
2023-02-15T19:25:53.846Z,5.10
2023-02-15T19:28:32.703Z,5.50
2023-02-15T19:38:33.092Z,6.20
2023-02-15T19:41:25.262Z,5.60
2023-02-15T19:43:55.867Z,4.90
2023-02-15T19:51:23.952Z,5.90
2023-02-15T19:56:24.303Z,5.70
2023-02-15T20:06:20.969Z,6.20
2023-02-15T20:21:15.636Z,5.80
2023-02-15T20:26:18.292Z,5.10
2023-02-15T20:28:47.125Z,6.10
2023-02-15T20:31:20.335Z,6.90
2023-02-15T20:33:52.007Z,5.30
2023-02-15T20:36:21.660Z,7.20
2023-02-15T20:44:31.704Z,7.20
2023-02-15T20:54:30.370Z,5.60
2023-02-15T20:59:32.302Z,6.30
2023-02-15T21:02:22.066Z,6.40
2023-02-15T21:07:20.871Z,6.40
2023-02-15T21:09:49.572Z,6.30
2023-02-15T21:12:19.660Z,5.80
2023-02-15T21:17:17.584Z,6.50
2023-02-15T21:22:16.114Z,6.20
2023-02-15T21:24:51.909Z,6.00
2023-02-15T21:37:33.158Z,5.70
2023-02-15T21:45:36.901Z,6.20
2023-02-15T21:53:33.674Z,6.20
2023-02-15T21:56:05.093Z,5.30
2023-02-15T21:58:36.525Z,5.10
2023-02-15T22:01:06.101Z,4.80
2023-02-15T22:03:37.283Z,5.30
2023-02-15T22:06:05.499Z,3.70
2023-02-15T22:13:32.428Z,3.90
2023-02-15T22:18:33.784Z,5.60
2023-02-15T22:21:04.306Z,4.90
2023-02-15T22:26:09.150Z,4.80
2023-02-15T22:28:41.629Z,5.20
2023-02-15T22:31:17.561Z,5.30
2023-02-15T22:36:27.865Z,4.80
2023-02-15T22:41:28.302Z,6.30
2023-02-15T22:43:56.837Z,5.00
2023-02-15T22:46:25.508Z,5.30
2023-02-15T22:51:24.109Z,4.90
2023-02-15T22:56:34.532Z,4.90
2023-02-15T22:59:06.473Z,5.00
2023-02-15T23:01:36.995Z,5.20
2023-02-15T23:06:34.594Z,5.10
2023-02-15T23:21:32.421Z,5.80
2023-02-15T23:24:26.764Z,4.90
2023-02-15T23:27:15.454Z,4.90
2023-02-15T23:32:13.714Z,5.40
2023-02-15T23:34:43.029Z,5.70
2023-02-15T23:37:15.737Z,5.40
2023-02-15T23:42:33.380Z,3.10
2023-02-15T23:45:02.631Z,4.40
2023-02-15T23:50:27.371Z,3.80
2023-02-15T23:55:30.610Z,3.30
